Time;durP1;ratioP1;P1;durP2;ratioP2;P2;SDS_P1;SDS_P2;PMS_P1;PMS_P2;Temp;Humidity;BMP_temperature;BMP_pressure;BME280_temperature;BME280_humidity;BME280_pressure;Samples;Min_cycle;Max_cycle;Signal;HPM_P1;HPM_P2
2022/08/23 00:04:08;;;;;;;;;;;;;;;22.60;100.00;100304.00;12868803;23;20374;-69
2022/08/23 00:09:15;;;;;;;;;;;;;;;22.53;100.00;100307.91;12885661;23;19920;-70
2022/08/23 00:14:20;;;;;;;;;;;;;;;22.45;100.00;100303.06;12869310;23;19999;-72
2022/08/23 00:19:24;;;;;;;;;;;;;;;22.46;100.00;100293.34;12885479;23;20231;-70
2022/08/23 00:24:28;;;;;;;;;;;;;;;22.45;100.00;100289.00;12869064;23;19974;-74
2022/08/23 00:29:33;;;;;;;;;;;;;;;22.47;100.00;100287.09;12868432;23;19920;-72
2022/08/23 00:34:37;;;;;;;;;;;;;;;22.44;100.00;100292.59;12868091;23;20310;-70
2022/08/23 00:39:41;;;;;;;;;;;;;;;22.41;100.00;100304.22;12868957;23;19927;-70
2022/08/23 00:50:08;;;;;;;;;;;;;;;22.39;100.00;100305.22;12883693;23;19920;-73
2022/08/23 00:55:28;;;;;;;;;;;;;;;22.33;100.00;100317.03;12882677;23;19931;-70
2022/08/23 01:00:32;;;;;;;;;;;;;;;22.34;100.00;100328.47;12868754;23;20270;-71
2022/08/23 01:05:38;;;;;;;;;;;;;;;22.35;100.00;100330.16;12868401;23;19928;-70
2022/08/23 01:10:46;;;;;;;;;;;;;;;22.34;100.00;100350.47;12881793;23;19931;-70
2022/08/23 01:15:52;;;;;;;;;;;;;;;22.24;100.00;100359.91;12881454;23;19955;-72
2022/08/23 01:20:57;;;;;;;;;;;;;;;21.99;100.00;100396.59;12881404;23;19920;-68
2022/08/23 01:26:03;;;;;;;;;;;;;;;21.82;100.00;100391.41;12874970;23;19924;-69
2022/08/23 01:31:07;;;;;;;;;;;;;;;21.61;100.00;100388.13;12867876;23;19920;-72
2022/08/23 01:36:11;;;;;;;;;;;;;;;21.26;100.00;100402.34;12867115;23;19919;-70
2022/08/23 01:41:16;;;;;;;;;;;;;;;21.30;100.00;100398.63;12867576;23;19931;-71
2022/08/23 01:46:20;;;;;;;;;;;;;;;21.20;100.00;100386.00;12866793;23;19919;-72
2022/08/23 01:51:23;;;;;;;;;;;;;;;21.13;100.00;100403.09;12867706;23;19920;-68
2022/08/23 01:56:29;;;;;;;;;;;;;;;21.14;100.00;100428.56;12867061;23;20248;-70
2022/08/23 02:01:41;;;;;;;;;;;;;;;21.23;100.00;100436.00;12866678;23;19993;-73
2022/08/23 02:06:44;;;;;;;;;;;;;;;21.34;100.00;100445.06;12867122;23;19920;-72
2022/08/23 02:11:48;;;;;;;;;;;;;;;21.28;100.00;100449.81;12866337;23;20231;-69
2022/08/23 02:16:52;;;;;;;;;;;;;;;21.32;100.00;100440.78;12866157;23;20026;-73
2022/08/23 02:22:07;;;;;;;;;;;;;;;21.37;100.00;100417.63;12878831;23;19920;-70
2022/08/23 02:27:13;;;;;;;;;;;;;;;21.33;100.00;100411.66;12866093;23;19999;-74
2022/08/23 02:32:18;;;;;;;;;;;;;;;21.30;100.00;100403.03;12878237;23;20283;-70
2022/08/23 02:37:21;;;;;;;;;;;;;;;21.31;100.00;100407.41;12867020;23;19920;-69
2022/08/23 02:42:25;;;;;;;;;;;;;;;21.37;100.00;100401.78;12866507;23;19919;-72
2022/08/23 02:47:28;;;;;;;;;;;;;;;21.40;100.00;100376.06;12866375;23;19940;-71
2022/08/23 02:52:32;;;;;;;;;;;;;;;21.38;100.00;100382.38;12865953;23;19920;-69
2022/08/23 02:57:38;;;;;;;;;;;;;;;21.40;100.00;100375.19;12865947;23;20276;-72
2022/08/23 03:02:42;;;;;;;;;;;;;;;21.38;100.00;100367.38;12877071;23;19987;-67
2022/08/23 03:07:46;;;;;;;;;;;;;;;21.39;100.00;100358.53;12864990;23;20287;-72
2022/08/23 03:12:50;;;;;;;;;;;;;;;21.25;100.00;100357.56;12865209;23;19954;-70
2022/08/23 03:17:53;;;;;;;;;;;;;;;21.33;100.00;100350.09;12864822;23;19999;-70
2022/08/23 03:22:56;;;;;;;;;;;;;;;21.34;100.00;100349.16;12864848;23;19920;-66
2022/08/23 03:28:03;;;;;;;;;;;;;;;21.37;100.00;100341.03;12865012;23;19992;-72
2022/08/23 03:33:06;;;;;;;;;;;;;;;21.31;100.00;100333.47;12876848;23;19943;-68
2022/08/23 03:38:09;;;;;;;;;;;;;;;21.32;100.00;100329.88;12864798;23;19962;-72
2022/08/23 03:43:14;;;;;;;;;;;;;;;21.26;100.00;100335.50;12865316;23;19950;-68
2022/08/23 03:48:18;;;;;;;;;;;;;;;21.33;100.00;100326.31;12869216;23;19986;-71
2022/08/23 03:53:22;;;;;;;;;;;;;;;21.38;100.00;100332.22;12868535;23;19955;-70
2022/08/23 03:58:28;;;;;;;;;;;;;;;21.39;100.00;100329.47;12868275;23;19994;-73
2022/08/23 04:03:31;;;;;;;;;;;;;;;21.28;100.00;100323.06;12879800;23;19954;-72
2022/08/23 04:08:34;;;;;;;;;;;;;;;21.34;100.00;100315.69;12868679;23;19971;-70
2022/08/23 04:13:38;;;;;;;;;;;;;;;21.40;100.00;100319.75;12869239;23;19951;-70
2022/08/23 04:18:41;;;;;;;;;;;;;;;21.38;100.00;100325.13;12868483;23;19962;-72
2022/08/23 04:23:44;;;;;;;;;;;;;;;21.39;100.00;100333.91;12869081;23;19958;-71
2022/08/23 04:28:49;;;;;;;;;;;;;;;21.37;100.00;100333.13;12868580;23;20015;-70
2022/08/23 04:33:52;;;;;;;;;;;;;;;21.34;100.00;100346.50;12869040;23;20421;-72
2022/08/23 04:38:55;;;;;;;;;;;;;;;21.34;100.00;100360.56;12868169;23;20295;-73
2022/08/23 04:43:59;;;;;;;;;;;;;;;21.34;100.00;100372.91;12868277;23;20263;-70
2022/08/23 04:49:02;;;;;;;;;;;;;;;21.39;100.00;100370.88;12868041;23;20315;-70
2022/08/23 04:54:06;;;;;;;;;;;;;;;21.40;100.00;100372.56;12862956;23;20359;-72
2022/08/23 04:59:11;;;;;;;;;;;;;;;21.40;100.00;100375.19;12860884;23;20058;-70
2022/08/23 05:04:15;;;;;;;;;;;;;;;21.34;100.00;100381.69;12861066;23;19952;-73
2022/08/23 05:09:18;;;;;;;;;;;;;;;21.21;100.00;100379.81;12860497;23;20415;-69
2022/08/23 05:14:24;;;;;;;;;;;;;;;21.25;100.00;100391.88;12860134;23;19995;-66
2022/08/23 05:19:27;;;;;;;;;;;;;;;21.19;100.00;100400.97;12859005;23;20350;-66
2022/08/23 05:24:30;;;;;;;;;;;;;;;21.19;100.00;100400.13;12860063;23;20007;-67
2022/08/23 05:29:34;;;;;;;;;;;;;;;21.24;100.00;100406.03;12859500;23;19924;-67
2022/08/23 05:34:38;;;;;;;;;;;;;;;21.30;100.00;100396.00;12859555;23;20310;-68
2022/08/23 05:39:41;;;;;;;;;;;;;;;21.34;100.00;100389.63;12859480;23;20004;-65
2022/08/23 05:44:46;;;;;;;;;;;;;;;21.41;100.00;100398.06;12861151;23;20320;-69
2022/08/23 05:49:49;;;;;;;;;;;;;;;21.44;100.00;100397.88;12859678;23;20296;-67
2022/08/23 05:54:52;;;;;;;;;;;;;;;21.48;100.00;100415.28;12859944;23;20032;-68
2022/08/23 05:59:56;;;;;;;;;;;;;;;21.46;100.00;100422.44;12859833;23;20362;-66
2022/08/23 06:04:59;;;;;;;;;;;;;;;21.54;100.00;100422.84;12859790;23;19983;-69
2022/08/23 06:10:03;;;;;;;;;;;;;;;21.57;100.00;100436.75;12859037;23;20350;-68
2022/08/23 06:15:07;;;;;;;;;;;;;;;21.57;100.00;100436.75;12860956;23;19991;-67
2022/08/23 06:20:11;;;;;;;;;;;;;;;21.63;100.00;100439.09;12861736;23;19966;-68
2022/08/23 06:25:14;;;;;;;;;;;;;;;21.67;100.00;100437.13;12860419;23;20039;-68
2022/08/23 06:30:18;;;;;;;;;;;;;;;21.74;100.00;100441.97;12859808;23;20003;-70
2022/08/23 06:35:22;;;;;;;;;;;;;;;21.87;100.00;100442.22;12858819;23;19930;-66
2022/08/23 06:40:42;;;;;;;;;;;;;;;21.93;100.00;100451.59;12872889;23;19962;-68
2022/08/23 06:45:46;;;;;;;;;;;;;;;21.98;100.00;100453.06;12858727;23;19924;-69
2022/08/23 06:50:56;;;;;;;;;;;;;;;22.05;100.00;100451.78;12872476;23;19944;-67
2022/08/23 06:55:59;;;;;;;;;;;;;;;22.15;100.00;100460.91;12859121;23;20300;-70
2022/08/23 07:01:11;;;;;;;;;;;;;;;22.26;100.00;100461.13;12858516;23;20051;-72
2022/08/23 07:06:34;;;;;;;;;;;;;;;22.37;100.00;100456.09;12871225;23;19920;-72
2022/08/23 07:11:38;;;;;;;;;;;;;;;22.44;100.00;100446.00;12858939;23;19943;-72
2022/08/23 07:16:44;;;;;;;;;;;;;;;22.49;100.00;100439.53;12858900;23;19924;-71
2022/08/23 07:21:47;;;;;;;;;;;;;;;22.57;100.00;100447.91;12874226;23;20280;-75
2022/08/23 07:26:51;;;;;;;;;;;;;;;22.68;100.00;100452.56;12862485;23;19924;-69
2022/08/23 07:31:56;;;;;;;;;;;;;;;22.73;100.00;100447.84;12861810;23;20227;-66
2022/08/23 07:37:00;;;;;;;;;;;;;;;22.83;100.00;100449.06;12862415;23;19955;-70
2022/08/23 07:42:03;;;;;;;;;;;;;;;22.97;100.00;100446.41;12862197;23;19924;-72
2022/08/23 07:47:28;;;;;;;;;;;;;;;23.14;100.00;100440.97;12862886;23;20376;-73
2022/08/23 07:52:31;;;;;;;;;;;;;;;23.29;100.00;100436.56;12876464;23;19948;-72
2022/08/23 07:57:35;;;;;;;;;;;;;;;23.44;100.00;100449.72;12863194;23;20011;-72
2022/08/23 08:02:39;;;;;;;;;;;;;;;23.57;100.00;100448.00;12861749;23;20023;-74
2022/08/23 08:07:42;;;;;;;;;;;;;;;23.69;100.00;100451.72;12862095;23;19995;-72
2022/08/23 08:12:45;;;;;;;;;;;;;;;23.74;100.00;100445.19;12861106;23;20014;-72
2022/08/23 08:17:50;;;;;;;;;;;;;;;23.78;100.00;100436.06;12861220;23;20002;-73
2022/08/23 08:22:53;;;;;;;;;;;;;;;23.91;100.00;100444.13;12861064;23;19925;-73
2022/08/23 08:28:02;;;;;;;;;;;;;;;23.96;100.00;100445.53;12861150;23;19932;-73
2022/08/23 08:33:06;;;;;;;;;;;;;;;24.02;100.00;100449.63;12860998;23;19995;-74
2022/08/23 08:38:09;;;;;;;;;;;;;;;24.13;100.00;100446.28;12860724;23;20003;-73
2022/08/23 08:43:21;;;;;;;;;;;;;;;24.22;100.00;100449.19;12861429;23;20002;-74
2022/08/23 08:48:27;;;;;;;;;;;;;;;24.28;100.00;100446.13;12874214;23;19943;-73
2022/08/23 08:53:34;;;;;;;;;;;;;;;24.39;100.00;100445.44;12874307;23;19924;-73
2022/08/23 08:58:41;;;;;;;;;;;;;;;24.51;100.00;100447.28;12873764;23;20282;-74
2022/08/23 09:03:47;;;;;;;;;;;;;;;24.67;100.00;100448.84;12875290;23;19924;-75
2022/08/23 09:09:03;;;;;;;;;;;;;;;24.91;100.00;100433.94;12879479;23;19987;-74
2022/08/23 09:14:16;;;;;;;;;;;;;;;25.04;100.00;100434.81;12879731;23;20208;-73
2022/08/23 09:19:22;;;;;;;;;;;;;;;25.17;100.00;100426.84;12867041;23;20054;-73
2022/08/23 09:24:25;;;;;;;;;;;;;;;25.38;100.00;100430.72;12861938;23;20010;-73
2022/08/23 09:29:29;;;;;;;;;;;;;;;25.49;100.00;100428.13;12860100;23;20008;-67
2022/08/23 09:34:42;;;;;;;;;;;;;;;25.65;100.00;100423.44;12860052;23;19947;-66
2022/08/23 09:39:46;;;;;;;;;;;;;;;25.95;100.00;100415.06;12859594;23;20267;-63
2022/08/23 09:44:49;;;;;;;;;;;;;;;26.30;100.00;100410.69;12858965;23;20014;-67
2022/08/23 09:49:54;;;;;;;;;;;;;;;26.40;100.00;100406.41;12859220;23;20066;-66
2022/08/23 09:54:59;;;;;;;;;;;;;;;26.50;100.00;100399.44;12859376;23;19982;-66
2022/08/23 10:00:18;;;;;;;;;;;;;;;26.42;100.00;100400.97;12871639;23;20003;-77
2022/08/23 10:05:30;;;;;;;;;;;;;;;26.55;100.00;100404.41;12859694;23;19978;-77
2022/08/23 10:10:36;;;;;;;;;;;;;;;26.67;100.00;100399.03;12858830;23;19999;-74
2022/08/23 10:15:48;;;;;;;;;;;;;;;26.71;100.00;100403.19;12859041;23;19959;-73
2022/08/23 10:21:00;;;;;;;;;;;;;;;26.68;100.00;100402.56;12870321;23;20003;-72
2022/08/23 10:26:05;;;;;;;;;;;;;;;26.91;100.00;100391.84;12858894;23;19970;-71
2022/08/23 10:31:14;;;;;;;;;;;;;;;27.18;100.00;100387.03;12859679;23;19956;-74
2022/08/23 10:36:23;;;;;;;;;;;;;;;27.59;100.00;100388.28;12871385;23;20279;-72
2022/08/23 10:41:44;;;;;;;;;;;;;;;27.82;100.00;100380.13;12871504;23;19951;-73
2022/08/23 10:46:52;;;;;;;;;;;;;;;28.28;100.00;100369.25;12868709;23;19927;-74
2022/08/23 10:51:58;;;;;;;;;;;;;;;28.35;100.00;100368.59;12867495;23;19927;-72
2022/08/23 10:57:01;;;;;;;;;;;;;;;28.77;100.00;100358.81;12861581;23;19924;-73
2022/08/23 11:02:14;;;;;;;;;;;;;;;29.28;100.00;100359.72;12863541;23;19986;-70
2022/08/23 11:07:20;;;;;;;;;;;;;;;29.33;96.54;100359.31;12871122;23;19923;-72
2022/08/23 11:12:32;;;;;;;;;;;;;;;29.21;93.91;100369.25;12871452;23;20002;-73
2022/08/23 11:17:41;;;;;;;;;;;;;;;29.72;88.91;100354.97;12867147;23;19999;-74
2022/08/23 11:23:14;;;;;;;;;;;;;;;30.25;86.41;100356.34;12876896;23;19924;-73
2022/08/23 11:28:38;;;;;;;;;;;;;;;30.75;82.16;100352.50;12725901;23;19987;-75
2022/08/23 11:33:44;;;;;;;;;;;;;;;31.34;75.59;100355.75;12874308;23;19920;-73
2022/08/23 11:39:04;;;;;;;;;;;;;;;30.93;77.66;100356.16;12873850;23;19951;-74
2022/08/23 11:44:22;;;;;;;;;;;;;;;30.78;75.74;100354.88;12842633;23;19986;-74
2022/08/23 11:49:35;;;;;;;;;;;;;;;30.74;74.27;100357.97;12871966;23;19920;-75
2022/08/23 11:54:44;;;;;;;;;;;;;;;31.31;72.64;100355.19;12871373;23;19951;-74
2022/08/23 12:00:00;;;;;;;;;;;;;;;32.16;68.24;100351.22;12870816;23;19951;-76
2022/08/23 12:05:07;;;;;;;;;;;;;;;33.09;65.64;100350.66;12868294;23;19947;-73
2022/08/23 12:10:10;;;;;;;;;;;;;;;32.84;64.44;100348.78;12869902;23;19919;-71
2022/08/23 12:15:16;;;;;;;;;;;;;;;31.53;68.11;100350.31;12868533;23;19931;-74
2022/08/23 12:20:24;;;;;;;;;;;;;;;31.97;64.81;100353.19;12868064;23;20015;-74
2022/08/23 12:25:29;;;;;;;;;;;;;;;32.38;65.15;100358.81;12878705;23;19923;-72
2022/08/23 12:30:37;;;;;;;;;;;;;;;32.91;64.07;100341.78;12868453;23;19939;-71
2022/08/23 12:35:49;;;;;;;;;;;;;;;33.06;63.23;100338.38;12889116;23;19920;-72
2022/08/23 12:40:54;;;;;;;;;;;;;;;32.15;64.37;100343.31;12889624;23;19955;-72
2022/08/23 12:46:00;;;;;;;;;;;;;;;32.33;65.25;100336.94;12888781;23;19943;-73
2022/08/23 12:51:08;;;;;;;;;;;;;;;33.12;61.25;100329.66;12889434;23;19982;-70
2022/08/23 12:56:14;;;;;;;;;;;;;;;34.28;57.80;100316.25;12888268;23;19920;-76
2022/08/23 13:01:23;;;;;;;;;;;;;;;36.09;53.56;100311.72;12888817;23;20331;-75
2022/08/23 13:06:34;;;;;;;;;;;;;;;36.86;50.32;100297.91;12888217;23;20200;-76
2022/08/23 13:11:40;;;;;;;;;;;;;;;36.73;50.82;100294.94;12868907;23;19924;-77
2022/08/23 13:16:44;;;;;;;;;;;;;;;36.49;50.19;100303.28;12887485;23;19920;-71
2022/08/23 13:21:47;;;;;;;;;;;;;;;36.03;49.57;100289.78;12888364;23;20212;-74
2022/08/23 13:27:10;;;;;;;;;;;;;;;35.43;52.00;100285.25;12871024;23;19948;-74
2022/08/23 13:32:25;;;;;;;;;;;;;;;34.14;57.17;100289.97;12886930;23;19955;-76
2022/08/23 13:37:30;;;;;;;;;;;;;;;33.13;57.44;100276.69;12885946;23;19942;-74
2022/08/23 13:42:35;;;;;;;;;;;;;;;33.04;55.75;100280.34;12867584;23;19920;-74
2022/08/23 13:47:46;;;;;;;;;;;;;;;32.76;56.43;100290.41;12885422;23;19987;-73
2022/08/23 13:52:49;;;;;;;;;;;;;;;32.63;56.75;100300.75;12867955;23;19950;-70
2022/08/23 13:58:14;;;;;;;;;;;;;;;32.50;57.07;100308.34;12866778;23;20290;-77
2022/08/23 14:03:18;;;;;;;;;;;;;;;32.38;57.99;100320.31;12867134;23;19920;-70
2022/08/23 14:08:21;;;;;;;;;;;;;;;32.23;59.67;100313.81;12866481;23;19920;-71
2022/08/23 14:13:27;;;;;;;;;;;;;;;31.53;62.95;100312.72;12866163;23;19940;-70
2022/08/23 14:18:31;;;;;;;;;;;;;;;30.91;65.46;100317.09;12883453;23;19920;-72
2022/08/23 14:23:35;;;;;;;;;;;;;;;30.48;64.17;100314.84;12866312;23;20272;-71
2022/08/23 14:28:38;;;;;;;;;;;;;;;30.07;65.68;100315.97;12865981;23;19930;-71
2022/08/23 14:33:49;;;;;;;;;;;;;;;29.75;66.82;100325.25;12865924;23;20398;-73
2022/08/23 14:38:52;;;;;;;;;;;;;;;29.47;68.56;100338.38;12865345;23;19931;-72
2022/08/23 14:43:57;;;;;;;;;;;;;;;29.24;69.75;100336.88;12866106;23;19994;-68
2022/08/23 14:49:01;;;;;;;;;;;;;;;29.07;68.78;100345.50;12865789;23;20201;-72
2022/08/23 14:54:05;;;;;;;;;;;;;;;28.92;69.20;100352.19;12867285;23;19923;-73
2022/08/23 14:59:08;;;;;;;;;;;;;;;28.75;71.36;100359.94;12865646;23;19920;-74
2022/08/23 15:04:16;;;;;;;;;;;;;;;28.62;72.32;100365.47;12865705;23;19924;-71
2022/08/23 15:09:20;;;;;;;;;;;;;;;28.51;72.17;100365.50;12865040;23;20189;-70
2022/08/23 15:14:23;;;;;;;;;;;;;;;28.42;71.99;100369.78;12866457;23;20288;-72
2022/08/23 15:19:28;;;;;;;;;;;;;;;28.32;75.94;100366.19;12882925;23;20040;-71
2022/08/23 15:24:32;;;;;;;;;;;;;;;28.22;78.91;100362.59;12881013;23;20306;-73
2022/08/23 15:29:35;;;;;;;;;;;;;;;28.09;80.24;100371.72;12865346;23;19996;-68
2022/08/23 15:34:40;;;;;;;;;;;;;;;27.92;81.14;100381.09;12866088;23;20280;-65
2022/08/23 15:39:48;;;;;;;;;;;;;;;27.81;80.09;100378.44;12876990;23;19927;-66
2022/08/23 15:44:51;;;;;;;;;;;;;;;27.72;79.35;100376.50;12862033;23;19951;-66
2022/08/23 15:49:57;;;;;;;;;;;;;;;27.65;78.16;100366.44;12880601;23;19983;-68
2022/08/23 15:55:00;;;;;;;;;;;;;;;27.56;77.23;100367.19;12880257;23;20263;-71
2022/08/23 16:00:04;;;;;;;;;;;;;;;27.51;78.52;100380.88;12861279;23;19982;-67
2022/08/23 16:05:09;;;;;;;;;;;;;;;27.46;78.60;100399.06;12865196;23;19931;-68
2022/08/23 16:10:14;;;;;;;;;;;;;;;27.41;76.38;100401.25;12861405;23;19951;-65
2022/08/23 16:15:17;;;;;;;;;;;;;;;27.36;75.64;100407.91;12880245;23;19948;-68
2022/08/23 16:20:21;;;;;;;;;;;;;;;27.29;75.29;100419.06;12880074;23;20024;-69
2022/08/23 16:25:24;;;;;;;;;;;;;;;27.17;79.50;100417.34;12872390;23;19951;-69
2022/08/23 16:30:28;;;;;;;;;;;;;;;27.03;82.77;100424.69;12861498;23;19932;-69
2022/08/23 16:35:33;;;;;;;;;;;;;;;26.90;84.88;100430.13;12881393;23;20274;-69
2022/08/23 16:40:36;;;;;;;;;;;;;;;26.80;86.17;100442.41;12881783;23;20006;-67
2022/08/23 16:45:39;;;;;;;;;;;;;;;26.68;87.74;100443.34;12883553;23;19920;-67
2022/08/23 16:50:44;;;;;;;;;;;;;;;26.58;88.43;100458.28;12882402;23;19980;-68
2022/08/23 16:55:47;;;;;;;;;;;;;;;26.48;89.46;100467.94;12861036;23;20019;-66
2022/08/23 17:00:50;;;;;;;;;;;;;;;26.41;90.15;100473.81;12880693;23;19954;-66
2022/08/23 17:05:55;;;;;;;;;;;;;;;26.32;90.76;100480.66;12861945;23;19955;-69
2022/08/23 17:10:58;;;;;;;;;;;;;;;26.27;91.50;100487.25;12860288;23;20532;-71
2022/08/23 17:16:05;;;;;;;;;;;;;;;26.23;91.57;100499.13;12881068;23;20304;-68
2022/08/23 17:21:09;;;;;;;;;;;;;;;26.14;92.40;100496.13;12860424;23;19955;-66
2022/08/23 17:26:12;;;;;;;;;;;;;;;26.09;92.89;100510.75;12859528;23;19956;-67
2022/08/23 17:31:16;;;;;;;;;;;;;;;26.01;93.93;100510.41;12859793;23;20050;-66
2022/08/23 17:36:27;;;;;;;;;;;;;;;25.95;93.85;100522.34;12860094;23;19924;-69
2022/08/23 17:41:30;;;;;;;;;;;;;;;25.91;93.89;100530.63;12880126;23;19923;-70
2022/08/23 17:46:38;;;;;;;;;;;;;;;25.86;94.27;100530.13;12859506;23;19924;-70
2022/08/23 17:51:43;;;;;;;;;;;;;;;25.82;94.47;100533.94;12859124;23;20481;-68
2022/08/23 17:56:46;;;;;;;;;;;;;;;25.83;94.28;100527.69;12858371;23;19919;-68
2022/08/23 18:01:52;;;;;;;;;;;;;;;25.84;94.63;100526.72;12880511;23;19951;-70
2022/08/23 18:06:57;;;;;;;;;;;;;;;25.75;95.48;100536.19;12860552;23;19939;-69
2022/08/23 18:12:00;;;;;;;;;;;;;;;25.64;96.32;100544.06;12860547;23;19951;-70
2022/08/23 18:17:03;;;;;;;;;;;;;;;25.52;97.48;100563.53;12861805;23;19955;-73
2022/08/23 18:22:08;;;;;;;;;;;;;;;25.48;97.29;100564.69;12862399;23;19920;-70
2022/08/23 18:32:31;;;;;;;;;;;;;;;25.28;98.92;100572.28;12866208;23;19943;-69
2022/08/23 18:37:36;;;;;;;;;;;;;;;25.17;99.69;100574.78;12866301;23;19951;-72
2022/08/23 18:42:40;;;;;;;;;;;;;;;25.05;100.00;100577.31;12865916;23;19927;-69
2022/08/23 18:47:43;;;;;;;;;;;;;;;25.02;100.00;100589.97;12866222;23;19939;-70
2022/08/23 18:52:47;;;;;;;;;;;;;;;25.02;100.00;100598.75;12865897;23;19920;-68
2022/08/23 18:57:50;;;;;;;;;;;;;;;24.94;100.00;100593.09;12865802;23;19943;-68
2022/08/23 19:02:53;;;;;;;;;;;;;;;24.84;100.00;100599.97;12865666;23;20357;-69
2022/08/23 19:07:58;;;;;;;;;;;;;;;24.67;100.00;100605.50;12865891;23;20374;-70
2022/08/23 19:13:01;;;;;;;;;;;;;;;24.49;100.00;100598.69;12865518;23;19943;-68
2022/08/23 19:18:04;;;;;;;;;;;;;;;24.37;100.00;100598.59;12868958;23;20319;-68
2022/08/23 19:23:08;;;;;;;;;;;;;;;24.46;100.00;100593.56;12870371;23;20292;-67
2022/08/23 19:28:12;;;;;;;;;;;;;;;24.51;100.00;100602.09;12869870;23;19931;-66
2022/08/23 19:33:15;;;;;;;;;;;;;;;24.54;100.00;100604.53;12869714;23;20010;-70
2022/08/23 19:38:19;;;;;;;;;;;;;;;24.51;100.00;100595.94;12869536;23;19987;-66
2022/08/23 19:43:22;;;;;;;;;;;;;;;24.45;100.00;100596.31;12869487;23;19954;-69
2022/08/23 19:48:26;;;;;;;;;;;;;;;24.38;100.00;100587.91;12869674;23;19920;-67
2022/08/23 19:53:30;;;;;;;;;;;;;;;24.31;100.00;100593.69;12869379;23;19924;-68
2022/08/23 19:58:34;;;;;;;;;;;;;;;24.27;100.00;100600.97;12869077;23;20327;-67
2022/08/23 20:03:37;;;;;;;;;;;;;;;24.22;100.00;100616.34;12869564;23;19931;-67
2022/08/23 20:08:41;;;;;;;;;;;;;;;24.24;100.00;100609.16;12869044;23;19931;-67
2022/08/23 20:13:44;;;;;;;;;;;;;;;24.23;100.00;100609.25;12868660;23;19991;-67
2022/08/23 20:18:47;;;;;;;;;;;;;;;24.20;100.00;100612.94;12869275;23;19944;-70
2022/08/23 20:24:02;;;;;;;;;;;;;;;24.13;100.00;100614.25;12868460;23;19943;-68
2022/08/23 20:29:06;;;;;;;;;;;;;;;24.09;100.00;100620.69;12869264;23;19920;-68
2022/08/23 20:34:09;;;;;;;;;;;;;;;24.04;100.00;100622.75;12868490;23;19958;-66
2022/08/23 20:39:15;;;;;;;;;;;;;;;23.95;100.00;100612.72;12868237;23;19982;-70
2022/08/23 20:44:25;;;;;;;;;;;;;;;23.93;100.00;100610.16;12889065;23;19999;-67
2022/08/23 20:49:28;;;;;;;;;;;;;;;23.91;100.00;100603.22;12868770;23;19920;-66
2022/08/23 20:54:32;;;;;;;;;;;;;;;23.85;100.00;100606.22;12868343;23;19999;-70
2022/08/23 20:59:35;;;;;;;;;;;;;;;23.85;100.00;100598.28;12867814;23;19919;-70
2022/08/23 21:04:45;;;;;;;;;;;;;;;23.80;100.00;100609.16;12868824;23;20003;-73
2022/08/23 21:09:50;;;;;;;;;;;;;;;23.81;100.00;100600.28;12867785;23;19948;-71
2022/08/23 21:14:55;;;;;;;;;;;;;;;23.77;100.00;100596.13;12868330;23;19987;-75
2022/08/23 21:19:58;;;;;;;;;;;;;;;23.73;100.00;100583.13;12868333;23;19987;-72
2022/08/23 21:25:03;;;;;;;;;;;;;;;23.73;100.00;100578.69;12867300;23;20353;-70
2022/08/23 21:30:07;;;;;;;;;;;;;;;23.67;100.00;100576.41;12868317;23;19920;-74
2022/08/23 21:35:12;;;;;;;;;;;;;;;23.66;100.00;100581.81;12867296;23;20334;-75
2022/08/23 21:40:17;;;;;;;;;;;;;;;23.61;100.00;100581.19;12866538;23;19919;-74
2022/08/23 21:45:20;;;;;;;;;;;;;;;23.57;100.00;100587.66;12867005;23;19924;-71
2022/08/23 21:50:23;;;;;;;;;;;;;;;23.51;100.00;100582.69;12866847;23;19958;-72
2022/08/23 21:55:32;;;;;;;;;;;;;;;23.46;100.00;100583.00;12862797;23;19998;-73
2022/08/23 22:00:39;;;;;;;;;;;;;;;23.48;100.00;100585.53;12862253;23;20006;-73
2022/08/23 22:05:43;;;;;;;;;;;;;;;23.43;100.00;100584.97;12859455;23;19998;-70
2022/08/23 22:10:48;;;;;;;;;;;;;;;23.33;100.00;100587.28;12860047;23;20006;-73
2022/08/23 22:16:00;;;;;;;;;;;;;;;23.29;100.00;100592.88;12864847;23;19974;-73
2022/08/23 22:21:03;;;;;;;;;;;;;;;;;;12861960;23;19942;-70
2022/08/23 22:26:07;;;;;;;;;;;;;;;23.28;100.00;100583.22;12859613;23;19999;-72
2022/08/23 22:31:12;;;;;;;;;;;;;;;23.18;100.00;100585.50;12859230;23;19928;-75
2022/08/23 22:36:17;;;;;;;;;;;;;;;23.12;100.00;100588.53;12858820;23;20276;-69
2022/08/23 22:41:23;;;;;;;;;;;;;;;23.02;100.00;100589.16;12858780;23;19990;-66
2022/08/23 22:46:28;;;;;;;;;;;;;;;22.90;100.00;100580.94;12862465;23;20010;-67
2022/08/23 22:51:33;;;;;;;;;;;;;;;22.90;100.00;100596.84;12858951;23;19923;-66
2022/08/23 22:56:39;;;;;;;;;;;;;;;22.87;100.00;100604.09;12858939;23;20011;-71
2022/08/23 23:01:43;;;;;;;;;;;;;;;22.87;100.00;100604.09;12862971;23;20002;-69
2022/08/23 23:06:49;;;;;;;;;;;;;;;22.87;100.00;100599.66;12862577;23;20271;-70
2022/08/23 23:11:53;;;;;;;;;;;;;;;22.82;100.00;100608.81;12858716;23;20447;-68
2022/08/23 23:16:56;;;;;;;;;;;;;;;22.90;100.00;100603.91;12859186;23;19924;-70
2022/08/23 23:22:00;;;;;;;;;;;;;;;22.92;100.00;100604.69;12858553;23;20275;-74
2022/08/23 23:27:05;;;;;;;;;;;;;;;22.93;100.00;100607.25;12863401;23;19995;-73
2022/08/23 23:38:43;;;;;;;;;;;;;;;22.84;100.00;100614.88;12865466;23;19912;-73
2022/08/23 23:43:48;;;;;;;;;;;;;;;22.85;100.00;100611.25;12865061;23;19999;-71
2022/08/23 23:48:51;;;;;;;;;;;;;;;22.79;100.00;100607.19;12866587;23;19951;-77
2022/08/23 23:53:55;;;;;;;;;;;;;;;22.72;100.00;100611.13;12884960;23;19999;-74
2022/08/23 23:58:59;;;;;;;;;;;;;;;22.75;100.00;100610.94;12884736;23;19920;-76
